Bei Facebook empfehlenBei Twitter postenGoogle plusPinterest

Das Wetter im Erzgebirge am 08.09.2015

Wetter und Klima am 08.09.2015 Holzhau im Erzgebirge (630m ü.NN)
Letzte gemessene Temperatur und Uhrzeit der Messung23:45:00 Uhr8.60 °C
Temperatur (Maximum / Höchstwert) und Uhrzeit der Messung14:15:00 Uhr15.80 °C
Temperatur (Minimum / Tiefstwert) und Uhrzeit der Messung05:45:001.40 °C
Errechneter Absolutwert der Temperaturschwankungen zwischen Tmin und Tmax des Tages14.40 K
Errechnete Tagesmitteltemperatur8.82708 °C
Gesamt - Niederschlag des Tages (in flüssiger Form)0.00 Liter / m²
Luftdruck (Maximum / Höchstwert) und Zeitpunkt der Messung10:30:00 Uhr1020.20 hPa
Luftdruck (Minimum / Tiefstwert) und Zeitpunkt der Messung22:00:00 Uhr1018.60 hPa
Errechneter Absolutwert der Luftdruckschwankungen des Tages1.60 hPa
Höchste gemessene Windgeschwindigkeit und Uhrzeit der Messung12:15:00 Uhr10.80 km/h
Errechnete Windhäufigkeit in Relation zu den Messwerten des Tages6.25000 %
Niedrigste Windkühle (Windchill) und Zeitpunkt der Messung05:45:00 Uhr1.40 °C
Taupunkt (Maximum / Höchstwert) und Uhrzeit der Messung11:00:00 Uhr11.70 °C
Taupunkt (Minimum / Tiefstwert) und Uhrzeit der Messung05:45:000.40 °C
Anzahl der automatisch eingelesenen Messwerte 96

Detaillierte Wetter- und Klima- Messwerte für den 08.09.2015 in Holzhau im Erzgebirge (630m ü.NN)
ZeitTemperaturLuftdruckRel. LuftfeuchteWindWindrichtungWindchillTaupunktNiederschlag l/m²
23:45:008.60 °C1018.80 hPa89.00 %6.90 °C 
23:30:008.70 °C1018.70 hPa89.00 %7.00 °C 
23:15:008.80 °C1018.80 hPa88.00 %6.90 °C 
23:00:008.80 °C1018.80 hPa88.00 %6.90 °C 
22:45:008.90 °C1018.70 hPa87.00 %6.90 °C 
22:30:008.90 °C1018.70 hPa87.00 %6.90 °C 
22:15:009.00 °C1018.80 hPa87.00 %7.00 °C 
22:00:009.10 °C1018.60 hPa86.00 %6.90 °C 
21:45:009.20 °C1018.70 hPa86.00 %7.00 °C 
21:30:009.30 °C1018.70 hPa85.00 %6.90 °C 
21:15:009.50 °C1018.90 hPa84.00 %6.90 °C 
21:00:009.60 °C1019.00 hPa84.00 %7.00 °C 
20:45:009.60 °C1018.90 hPa83.00 %6.90 °C 
20:30:009.80 °C1018.70 hPa83.00 %7.10 °C 
20:15:0010.00 °C1019.00 hPa82.00 %7.10 °C 
20:00:0010.30 °C1018.80 hPa81.00 %7.20 °C 
19:45:0010.80 °C1018.90 hPa80.00 %7.50 °C 
19:30:0011.30 °C1018.80 hPa79.00 %7.80 °C 
19:15:0011.90 °C1018.70 hPa78.00 %8.20 °C 
19:00:0012.50 °C1018.80 hPa77.00 %8.60 °C 
18:45:0012.90 °C1018.70 hPa76.00 %8.80 °C 
18:30:0013.30 °C1018.80 hPa76.00 %9.20 °C 
18:15:0013.30 °C1018.80 hPa76.00 %9.20 °C 
18:00:0013.20 °C1018.90 hPa75.00 %8.90 °C 
17:45:0013.40 °C1018.90 hPa75.00 %9.10 °C 
17:30:0013.50 °C1018.90 hPa74.00 %9.00 °C 
17:15:0013.90 °C1019.00 hPa75.00 %9.50 °C 
17:00:0013.90 °C1019.00 hPa75.00 %9.50 °C 
16:45:0013.90 °C1019.10 hPa76.00 %9.70 °C 
16:30:0013.60 °C1019.20 hPa76.00 %9.50 °C 
16:15:0013.40 °C1019.40 hPa76.00 %9.30 °C 
16:00:0012.90 °C1019.50 hPa76.00 %8.80 °C 
15:45:0012.80 °C1019.60 hPa74.00 %8.30 °C 
15:30:0013.30 °C1019.60 hPa73.00 %8.60 °C 
15:15:0013.70 °C1019.60 hPa73.00 %9.00 °C 
15:00:0014.10 °C1019.70 hPa72.00 %9.10 °C 
14:45:0014.80 °C1019.70 hPa72.00 %9.80 °C 
14:30:0014.90 °C1019.90 hPa72.00 %3.24 km/hWNW14.90 °C9.90 °C 
14:15:0015.80 °C1019.60 hPa74.00 %5.04 km/hWNW16.30 °C11.20 °C 
14:00:0014.10 °C1019.80 hPa74.00 %9.50 °C 
13:45:0014.40 °C1019.80 hPa73.00 %9.60 °C 
13:30:0014.30 °C1019.70 hPa75.00 %9.90 °C 
13:15:0013.90 °C1019.80 hPa73.00 %9.10 °C 
13:00:0014.40 °C1019.60 hPa72.00 %9.40 °C 
12:45:0014.50 °C1019.60 hPa72.00 %9.50 °C 
12:30:0014.80 °C1019.70 hPa74.00 %10.20 °C 
12:15:0014.10 °C1019.60 hPa75.00 %10.80 km/hW13.40 °C9.70 °C 
12:00:0014.30 °C1019.40 hPa77.00 %6.48 km/hW14.30 °C10.30 °C 
11:45:0014.20 °C1019.70 hPa80.00 %10.80 °C 
11:30:0013.90 °C1019.80 hPa82.00 %10.90 °C 
11:15:0013.80 °C1019.80 hPa84.00 %2.88 km/hWNW13.80 °C11.10 °C 
11:00:0013.60 °C1020.00 hPa88.00 %11.70 °C 
10:45:0012.90 °C1020.10 hPa90.00 %11.30 °C 
10:30:0012.10 °C1020.20 hPa91.00 %3.60 km/hNW12.10 °C10.70 °C 
10:15:0011.80 °C1019.90 hPa93.00 %10.70 °C 
10:00:0011.00 °C1019.90 hPa93.00 %9.90 °C 
09:45:0010.10 °C1020.00 hPa94.00 %9.20 °C 
09:30:009.40 °C1019.80 hPa94.00 %8.50 °C 
09:15:008.90 °C1019.80 hPa95.00 %8.10 °C 
09:00:008.10 °C1019.60 hPa95.00 %7.30 °C 
08:45:007.60 °C1019.80 hPa94.00 %6.70 °C 
08:30:006.70 °C1019.60 hPa94.00 %5.80 °C 
08:15:005.90 °C1019.80 hPa94.00 %5.00 °C 
08:00:004.80 °C1019.70 hPa94.00 %3.90 °C 
07:45:003.70 °C1019.80 hPa94.00 %2.80 °C 
07:30:002.80 °C1019.70 hPa94.00 %1.90 °C 
07:15:002.30 °C1019.60 hPa93.00 %1.30 °C 
07:00:001.90 °C1019.50 hPa93.00 %0.90 °C 
06:45:001.60 °C1019.50 hPa93.00 %0.60 °C 
06:30:001.60 °C1019.60 hPa93.00 %0.60 °C 
06:15:001.60 °C1019.50 hPa93.00 %0.60 °C 
06:00:001.60 °C1019.50 hPa93.00 %0.60 °C 
05:45:001.40 °C1019.40 hPa93.00 %0.40 °C 
05:30:001.50 °C1019.50 hPa93.00 %0.50 °C 
05:15:001.70 °C1019.60 hPa93.00 %0.70 °C 
05:00:001.80 °C1019.60 hPa92.00 %0.60 °C 
04:45:002.10 °C1019.50 hPa92.00 %0.90 °C 
04:30:002.20 °C1019.60 hPa92.00 %1.00 °C 
04:15:002.30 °C1019.50 hPa92.00 %1.10 °C 
04:00:002.40 °C1019.50 hPa92.00 %1.20 °C 
03:45:002.50 °C1019.50 hPa92.00 %1.30 °C 
03:30:002.70 °C1019.70 hPa92.00 %1.50 °C 
03:15:002.90 °C1019.70 hPa92.00 %1.70 °C 
03:00:003.30 °C1019.60 hPa92.00 %2.10 °C 
02:45:003.80 °C1019.60 hPa92.00 %2.60 °C 
02:30:004.20 °C1019.90 hPa92.00 %3.00 °C 
02:15:004.70 °C1019.80 hPa92.00 %3.50 °C 
02:00:004.80 °C1019.80 hPa92.00 %3.60 °C 
01:45:004.60 °C1019.70 hPa92.00 %3.40 °C 
01:30:004.60 °C1019.90 hPa92.00 %3.40 °C 
01:15:004.40 °C1020.10 hPa92.00 %3.20 °C 
01:00:004.20 °C1020.00 hPa92.00 %3.00 °C 
00:45:004.50 °C1020.20 hPa91.00 %3.20 °C 
00:30:004.70 °C1020.10 hPa91.00 %3.40 °C 
00:15:005.10 °C1019.90 hPa91.00 %3.80 °C 
00:00:005.10 °C1020.20 hPa91.00 %3.80 °C 

Permanenter Link zu dieser Seite: Wetter im Erzgebirge am 08.09.2015
Performance-Info: Die Erstellung der Seite / Statistik(en) / Tabelle(n) erforderte 5 Datenbankserver-Abfrage(n) und dauerte 101 Millisekunden. (Dieser Messwert ist von der Gesamt-Auslastung des Servers abhängig.)
Erzgebirge - Wetter | Erzgebirge - Wetter (Mobilgeräte) | Komplette Klimadatenbank